Time;durP1;ratioP1;P1;durP2;ratioP2;P2;SDS_P1;SDS_P2;PMS_P1;PMS_P2;Temp;Humidity;BMP_temperature;BMP_pressure;BME280_temperature;BME280_humidity;BME280_pressure;Samples;Min_cycle;Max_cycle;Signal;HPM_P1;HPM_P2
2022/07/02 00:01:21;;;;;;;1.73;0.90;;;14.40;99.90;;;;;;6204476;28;20092;-78
2022/07/02 00:04:28;;;;;;;3.15;1.30;;;14.30;99.90;;;;;;6204290;28;20050;-78
2022/07/02 00:07:30;;;;;;;2.40;1.00;;;14.30;99.90;;;;;;6204528;28;20065;-78
2022/07/02 00:10:32;;;;;;;1.50;0.75;;;14.20;99.90;;;;;;6203954;28;20058;-78
2022/07/02 00:13:35;;;;;;;0.82;0.60;;;14.20;99.90;;;;;;6204448;28;20061;-79
2022/07/02 00:16:39;;;;;;;2.13;1.30;;;14.10;99.90;;;;;;6208310;28;20050;-79
2022/07/02 00:19:41;;;;;;;1.10;0.80;;;14.20;99.90;;;;;;6199079;28;20065;-78
2022/07/02 00:22:44;;;;;;;7.13;1.15;;;14.20;99.90;;;;;;6201993;28;20052;-78
2022/07/02 00:25:53;;;;;;;1.67;0.65;;;14.20;99.90;;;;;;6201676;28;20530;-78
2022/07/02 00:29:11;;;;;;;2.85;0.80;;;14.10;99.90;;;;;;6202174;28;20046;-78
2022/07/02 00:32:14;;;;;;;2.10;1.23;;;14.10;99.90;;;;;;6203184;28;20050;-78
2022/07/02 00:35:17;;;;;;;1.63;0.73;;;14.00;99.90;;;;;;6202491;28;20050;-78
2022/07/02 00:38:19;;;;;;;2.47;1.15;;;14.00;99.90;;;;;;6202563;28;20057;-78
2022/07/02 00:41:22;;;;;;;2.75;0.85;;;14.00;99.90;;;;;;6202824;28;20042;-79
2022/07/02 00:44:25;;;;;;;1.25;0.85;;;14.00;99.90;;;;;;6200272;28;20046;-79
2022/07/02 00:47:30;;;;;;;3.30;0.98;;;14.00;99.90;;;;;;6210887;28;20054;-79
2022/07/02 00:50:32;;;;;;;2.88;0.85;;;13.90;99.90;;;;;;6213788;28;20397;-79
2022/07/02 00:53:34;;;;;;;1.10;0.75;;;13.80;99.90;;;;;;6223794;28;20050;-79
2022/07/02 00:56:35;;;;;;;1.88;0.70;;;13.80;99.90;;;;;;6226865;28;20048;-78
2022/07/02 00:59:37;;;;;;;2.03;0.70;;;13.80;99.90;;;;;;6226922;28;20050;-79
2022/07/02 01:02:44;;;;;;;1.27;0.70;;;13.80;99.90;;;;;;6226307;28;20045;-78
2022/07/02 01:05:48;;;;;;;2.55;0.90;;;13.70;99.90;;;;;;6225630;28;20478;-78
2022/07/02 01:12:15;;;;;;;1.90;0.80;;;13.70;99.90;;;;;;6223019;28;20057;-78
2022/07/02 01:15:17;;;;;;;1.02;0.73;;;13.60;99.90;;;;;;6213957;28;20043;-77
2022/07/02 01:18:20;;;;;;;3.17;0.93;;;13.60;99.90;;;;;;6205967;28;20053;-79
2022/07/02 01:21:22;;;;;;;3.05;1.20;;;13.60;99.90;;;;;;6223914;28;20045;-77
2022/07/02 01:24:28;;;;;;;2.70;1.23;;;13.50;99.90;;;;;;6222676;28;20054;-78
2022/07/02 01:27:29;;;;;;;1.30;0.82;;;13.40;99.90;;;;;;6223869;28;20058;-78
2022/07/02 01:30:31;;;;;;;1.48;0.70;;;13.50;99.90;;;;;;6222214;28;20427;-78
2022/07/02 01:33:33;;;;;;;1.85;0.95;;;13.40;99.90;;;;;;6222816;28;20045;-78
2022/07/02 01:36:35;;;;;;;2.35;0.98;;;13.30;99.90;;;;;;6224844;28;20046;-78
2022/07/02 01:39:40;;;;;;;1.33;0.70;;;13.30;99.90;;;;;;6225265;28;20495;-78
2022/07/02 01:42:42;;;;;;;3.42;0.80;;;13.20;99.90;;;;;;6226180;28;20060;-79
2022/07/02 01:45:43;;;;;;;4.85;1.27;;;13.30;99.90;;;;;;6218791;28;20042;-78
2022/07/02 01:48:45;;;;;;;4.90;1.25;;;13.20;99.90;;;;;;6216354;28;20052;-78
2022/07/02 01:51:47;;;;;;;2.90;0.98;;;13.20;99.90;;;;;;6225285;28;20046;-77
2022/07/02 01:54:50;;;;;;;0.90;0.70;;;13.20;99.90;;;;;;6224429;28;20056;-77
2022/07/02 01:57:52;;;;;;;4.35;1.42;;;13.20;99.90;;;;;;6224240;28;20046;-77
2022/07/02 02:00:54;;;;;;;2.08;0.90;;;13.20;99.90;;;;;;6223543;28;20132;-78
2022/07/02 02:03:55;;;;;;;4.90;1.00;;;13.20;99.90;;;;;;6226122;28;20054;-79
2022/07/02 02:06:57;;;;;;;2.45;1.00;;;13.10;99.90;;;;;;6224187;28;20045;-79
2022/07/02 02:10:00;;;;;;;1.73;1.10;;;13.20;99.90;;;;;;6224855;28;20049;-79
2022/07/02 02:13:02;;;;;;;2.75;0.90;;;13.10;99.90;;;;;;6224203;28;20042;-79
2022/07/02 02:16:04;;;;;;;3.17;0.93;;;13.00;99.90;;;;;;6217279;28;20045;-79
2022/07/02 02:19:07;;;;;;;1.55;0.95;;;13.00;99.90;;;;;;6216997;28;20469;-77
2022/07/02 02:22:08;;;;;;;3.25;0.98;;;13.00;99.90;;;;;;6223070;28;20053;-78
2022/07/02 02:25:12;;;;;;;2.40;0.85;;;12.90;99.90;;;;;;6222839;28;20521;-78
2022/07/02 02:28:13;;;;;;;4.60;1.02;;;12.90;99.90;;;;;;6223594;28;20056;-77
2022/07/02 02:31:15;;;;;;;7.80;2.65;;;12.90;99.90;;;;;;6222814;28;20428;-77
2022/07/02 02:34:17;;;;;;;0.75;0.75;;;12.80;99.90;;;;;;6222794;28;20053;-78
2022/07/02 02:37:19;;;;;;;1.80;0.82;;;12.70;99.90;;;;;;6223041;28;20045;-76
2022/07/02 02:40:22;;;;;;;2.50;0.85;;;12.80;99.90;;;;;;6222729;28;20053;-77
2022/07/02 02:43:23;;;;;;;1.80;0.95;;;12.80;99.90;;;;;;6223417;28;20523;-77
2022/07/02 02:46:25;;;;;;;1.85;1.30;;;12.80;99.90;;;;;;6211272;28;20042;-77
2022/07/02 02:49:27;;;;;;;2.47;0.95;;;12.80;99.90;;;;;;6207363;28;20053;-77
2022/07/02 02:52:28;;;;;;;5.75;0.90;;;12.80;99.90;;;;;;6202275;28;20047;-77
2022/07/02 02:55:31;;;;;;;2.08;0.90;;;12.70;99.90;;;;;;6200757;28;20046;-78
2022/07/02 02:58:33;;;;;;;1.08;0.63;;;12.70;99.90;;;;;;6201123;28;20056;-78
2022/07/02 03:01:35;;;;;;;5.70;1.00;;;12.60;99.90;;;;;;6201691;28;20057;-78
2022/07/02 03:04:37;;;;;;;2.70;1.15;;;12.60;99.90;;;;;;6202995;28;20057;-77
2022/07/02 03:07:39;;;;;;;3.35;0.80;;;12.50;99.90;;;;;;6203398;28;20054;-77
2022/07/02 03:10:42;;;;;;;3.17;0.93;;;12.50;99.90;;;;;;6205219;28;20054;-78
2022/07/02 03:13:44;;;;;;;3.63;1.15;;;12.60;99.90;;;;;;6203924;28;20050;-78
2022/07/02 03:16:46;;;;;;;0.95;0.82;;;12.50;99.90;;;;;;6204190;28;20126;-78
2022/07/02 03:19:47;;;;;;;2.80;0.82;;;12.40;99.90;;;;;;6208418;28;20058;-78
2022/07/02 03:22:49;;;;;;;1.65;1.20;;;12.40;99.90;;;;;;6202599;28;20053;-78
2022/07/02 03:25:52;;;;;;;1.58;1.10;;;12.40;99.90;;;;;;6202561;28;20424;-78
2022/07/02 03:28:54;;;;;;;4.22;0.98;;;12.40;99.90;;;;;;6202408;28;20042;-78
2022/07/02 03:31:55;;;;;;;3.38;0.85;;;12.40;99.90;;;;;;6202075;28;20061;-77
2022/07/02 03:34:57;;;;;;;2.42;1.00;;;12.40;99.90;;;;;;6200898;28;20173;-78
2022/07/02 03:38:01;;;;;;;1.73;0.90;;;12.40;99.90;;;;;;6200771;28;20053;-77
2022/07/02 03:41:06;;;;;;;3.63;1.08;;;12.40;99.90;;;;;;6202243;28;20049;-77
2022/07/02 03:44:07;;;;;;;1.27;0.93;;;12.40;99.90;;;;;;6201216;28;20050;-77
2022/07/02 03:47:09;;;;;;;1.25;0.85;;;12.40;99.90;;;;;;6201017;28;20407;-77
2022/07/02 03:50:11;;;;;;;3.05;0.73;;;12.50;99.90;;;;;;6201432;28;20046;-78
2022/07/02 03:53:13;;;;;;;2.92;0.82;;;12.60;99.90;;;;;;6201178;28;20069;-77
2022/07/02 03:56:16;;;;;;;3.42;0.60;;;12.60;99.90;;;;;;6200880;28;20052;-78
2022/07/02 03:59:18;;;;;;;1.70;1.08;;;12.60;99.90;;;;;;6201608;28;20054;-77
2022/07/02 04:02:19;;;;;;;1.85;0.63;;;12.60;99.90;;;;;;6200424;28;20126;-77
2022/07/02 04:05:21;;;;;;;2.50;0.55;;;12.70;99.90;;;;;;6200568;28;20047;-77
2022/07/02 04:08:23;;;;;;;2.10;0.85;;;12.80;99.90;;;;;;6200679;28;20054;-78
2022/07/02 04:11:26;;;;;;;1.95;1.00;;;12.90;99.90;;;;;;6201086;28;20050;-77
2022/07/02 04:14:28;;;;;;;2.35;0.80;;;13.10;99.90;;;;;;6201038;28;20050;-77
2022/07/02 04:17:29;;;;;;;1.52;0.70;;;14.10;99.90;;;;;;6202058;28;20050;-78
2022/07/02 04:20:32;;;;;;;3.63;0.70;;;16.00;99.00;;;;;;6205317;28;20050;-77
2022/07/02 04:23:34;;;;;;;2.65;0.57;;;17.80;96.20;;;;;;6200991;28;20496;-77
2022/07/02 04:26:37;;;;;;;0.63;0.43;;;18.90;94.10;;;;;;6200526;28;20519;-78
2022/07/02 04:29:38;;;;;;;1.00;0.50;;;18.80;93.20;;;;;;6200223;28;20086;-77
2022/07/02 04:32:40;;;;;;;4.55;0.73;;;18.00;93.90;;;;;;6200768;28;20046;-77
2022/07/02 04:35:42;;;;;;;3.47;0.60;;;17.30;94.70;;;;;;6201426;28;20057;-77
2022/07/02 04:38:43;;;;;;;1.15;0.57;;;16.70;95.50;;;;;;6200708;28;20512;-77
2022/07/02 04:41:46;;;;;;;2.72;0.50;;;16.40;96.20;;;;;;6201129;28;20053;-78
2022/07/02 04:44:48;;;;;;;0.90;0.50;;;17.10;96.00;;;;;;6200071;28;20054;-78
2022/07/02 04:47:50;;;;;;;6.38;0.70;;;19.30;93.40;;;;;;6200792;28;20055;-77
2022/07/02 04:50:52;;;;;;;2.08;0.60;;;21.80;89.20;;;;;;6200156;28;20069;-78
2022/07/02 04:53:53;;;;;;;1.60;0.30;;;23.90;81.20;;;;;;6215848;23;20046;-80
2022/07/02 04:56:56;;;;;;;1.73;0.68;;;25.60;73.40;;;;;;6222444;28;20049;-79
2022/07/02 04:59:58;;;;;;;2.63;0.68;;;26.90;66.90;;;;;;6223332;28;20053;-80
2022/07/02 05:03:00;;;;;;;0.98;0.40;;;27.90;60.90;;;;;;6222395;28;20124;-78
2022/07/02 05:06:01;;;;;;;3.70;0.30;;;28.80;57.60;;;;;;6222402;28;20045;-78
2022/07/02 05:09:04;;;;;;;2.28;0.50;;;29.50;54.30;;;;;;6221771;28;20056;-78
2022/07/02 05:12:09;;;;;;;5.80;0.80;;;30.10;52.00;;;;;;6222614;28;20046;-77
2022/07/02 05:15:11;;;;;;;1.95;0.38;;;30.90;49.90;;;;;;6222326;28;20045;-81
2022/07/02 05:18:13;;;;;;;7.55;0.63;;;31.50;48.10;;;;;;6221893;28;20052;-78
2022/07/02 05:21:14;;;;;;;0.63;0.40;;;32.30;46.70;;;;;;6221146;28;20046;-78
2022/07/02 05:24:16;;;;;;;1.17;0.50;;;33.00;45.20;;;;;;6222144;28;20050;-78
2022/07/02 05:27:19;;;;;;;1.50;0.40;;;34.00;43.40;;;;;;6222483;28;20077;-78
2022/07/02 05:30:21;;;;;;;2.35;0.60;;;35.00;41.60;;;;;;6221714;28;20808;-79
2022/07/02 05:33:23;;;;;;;4.03;0.40;;;35.60;40.30;;;;;;6221712;28;20553;-78
2022/07/02 05:36:24;;;;;;;3.95;0.43;;;35.70;39.50;;;;;;6222061;28;20053;-79
2022/07/02 05:39:26;;;;;;;2.75;0.52;;;35.60;39.20;;;;;;6222018;28;20057;-79
2022/07/02 05:42:29;;;;;;;1.25;0.35;;;35.80;39.00;;;;;;6221209;28;20045;-80
2022/07/02 05:45:31;;;;;;;1.77;0.68;;;36.30;38.20;;;;;;6221527;28;20499;-78
2022/07/02 05:48:33;;;;;;;5.75;0.82;;;37.50;36.90;;;;;;6221127;28;20054;-78
2022/07/02 05:51:34;;;;;;;3.05;0.45;;;38.90;35.20;;;;;;6222248;28;20054;-78
2022/07/02 05:54:36;;;;;;;1.45;0.30;;;40.00;33.70;;;;;;6220757;28;20050;-82
2022/07/02 05:57:39;;;;;;;1.13;0.50;;;41.00;32.70;;;;;;6220793;28;20863;-79
2022/07/02 06:00:41;;;;;;;2.83;0.60;;;41.60;31.90;;;;;;6221202;28;20049;-79
2022/07/02 06:03:42;;;;;;;5.55;0.52;;;42.10;31.20;;;;;;6221285;28;20054;-82
2022/07/02 06:10:04;;;;;;;1.00;0.40;;;43.00;30.10;;;;;;6220674;28;20124;-79
2022/07/02 06:13:07;;;;;;;3.65;0.32;;;43.50;29.70;;;;;;6220791;28;20419;-78
2022/07/02 06:16:09;;;;;;;1.20;0.30;;;43.60;29.30;;;;;;6221805;28;20053;-79
2022/07/02 06:19:10;;;;;;;2.35;0.17;;;43.30;29.20;;;;;;6220580;28;20049;-79
2022/07/02 06:22:12;;;;;;;7.22;0.50;;;43.50;29.30;;;;;;6196264;28;20060;-79
2022/07/02 06:25:14;;;;;;;2.40;0.50;;;43.80;29.00;;;;;;6202954;28;20042;-79
2022/07/02 06:28:17;;;;;;;0.20;0.15;;;44.00;28.90;;;;;;6203921;28;20412;-81
2022/07/02 06:31:19;;;;;;;2.05;0.20;;;44.30;28.50;;;;;;6205057;28;20050;-79
2022/07/02 06:34:20;;;;;;;1.75;0.30;;;44.40;28.60;;;;;;6204345;28;20054;-79
2022/07/02 06:37:22;;;;;;;1.02;0.43;;;44.70;28.70;;;;;;6204726;28;20039;-79
2022/07/02 06:40:24;;;;;;;1.50;0.40;;;44.70;28.40;;;;;;6204371;28;20046;-81
2022/07/02 06:43:27;;;;;;;4.15;0.75;;;44.60;28.50;;;;;;6204983;28;20054;-79
2022/07/02 06:46:29;;;;;;;0.40;0.10;;;44.30;28.50;;;;;;6204029;28;20038;-79
2022/07/02 06:49:30;;;;;;;2.97;0.30;;;44.30;28.80;;;;;;6203959;28;20050;-79
2022/07/02 06:52:32;;;;;;;0.38;0.10;;;44.30;28.70;;;;;;6204362;28;20062;-82
2022/07/02 06:55:34;;;;;;;0.95;0.22;;;44.20;28.70;;;;;;6204220;28;20061;-79
2022/07/02 06:58:37;;;;;;;1.42;0.40;;;44.30;28.70;;;;;;6203617;28;20693;-79
2022/07/02 07:01:39;;;;;;;2.08;0.80;;;44.40;28.70;;;;;;6203681;28;20431;-82
2022/07/02 07:04:42;;;;;;;2.38;0.20;;;44.50;28.80;;;;;;6203664;28;20424;-79
2022/07/02 07:07:43;;;;;;;0.60;0.20;;;43.80;28.70;;;;;;6204243;28;20050;-79
2022/07/02 07:10:45;;;;;;;2.22;0.38;;;43.20;29.00;;;;;;6203886;28;20046;-81
2022/07/02 07:13:49;;;;;;;2.13;0.20;;;42.30;29.50;;;;;;6203998;28;20046;-79
2022/07/02 07:16:51;;;;;;;0.65;0.17;;;42.00;29.80;;;;;;6204681;28;20046;-79
2022/07/02 07:19:52;;;;;;;0.65;0.20;;;41.80;30.00;;;;;;6205706;28;20053;-81
2022/07/02 07:22:54;;;;;;;0.75;0.13;;;41.70;30.10;;;;;;6211833;28;20052;-80
2022/07/02 07:25:56;;;;;;;0.25;0.10;;;41.90;30.00;;;;;;6229225;28;20077;-80
2022/07/02 07:29:00;;;;;;;1.45;0.25;;;41.90;30.30;;;;;;6229439;28;20048;-81
2022/07/02 07:32:02;;;;;;;0.77;0.20;;;42.70;30.50;;;;;;6229834;28;20060;-81
2022/07/02 07:35:04;;;;;;;5.63;0.22;;;42.70;29.80;;;;;;6226941;28;20050;-78
2022/07/02 07:38:06;;;;;;;0.03;0.00;;;42.60;30.10;;;;;;6224687;28;20046;-79
2022/07/02 07:41:08;;;;;;;0.80;0.22;;;43.00;29.90;;;;;;6225618;28;20107;-79
2022/07/02 07:44:11;;;;;;;1.73;0.30;;;42.90;29.80;;;;;;6225843;28;20517;-78
2022/07/02 07:47:13;;;;;;;2.72;0.20;;;42.00;29.90;;;;;;6224810;28;20042;-80
2022/07/02 07:50:14;;;;;;;0.90;0.22;;;41.80;30.50;;;;;;6224370;28;20539;-78
2022/07/02 07:53:16;;;;;;;0.85;0.30;;;41.50;30.50;;;;;;6224931;28;20046;-78
2022/07/02 07:56:18;;;;;;;1.08;0.20;;;41.20;30.20;;;;;;6224493;28;20057;-79
2022/07/02 07:59:21;;;;;;;0.00;0.00;;;40.90;30.90;;;;;;6225108;28;20054;-78
2022/07/02 08:02:23;;;;;;;1.85;0.30;;;41.00;31.20;;;;;;6224634;28;20054;-80
2022/07/02 08:05:25;;;;;;;0.75;0.15;;;40.70;30.40;;;;;;6225122;28;20046;-78
2022/07/02 08:08:27;;;;;;;0.95;0.30;;;40.30;30.00;;;;;;6224395;28;20050;-78
2022/07/02 08:11:29;;;;;;;0.38;0.10;;;39.80;30.90;;;;;;6225883;28;20050;-78
2022/07/02 08:14:32;;;;;;;2.35;0.22;;;39.60;30.60;;;;;;6223517;28;20424;-78
2022/07/02 08:17:34;;;;;;;4.50;0.43;;;39.90;30.50;;;;;;6224154;28;20046;-85
2022/07/02 08:20:36;;;;;;;0.20;0.10;;;40.70;30.80;;;;;;6223632;28;20558;-78
2022/07/02 08:23:37;;;;;;;0.95;0.13;;;41.60;29.20;;;;;;6217014;28;20504;-78
2022/07/02 08:26:39;;;;;;;0.30;0.10;;;41.60;29.30;;;;;;6223250;28;20049;-78
2022/07/02 08:29:42;;;;;;;0.32;0.10;;;41.50;28.70;;;;;;6223269;28;20052;-78
2022/07/02 08:32:45;;;;;;;0.50;0.10;;;41.10;28.30;;;;;;6223484;28;20054;-78
2022/07/02 08:35:46;;;;;;;0.40;0.05;;;40.70;28.40;;;;;;6223820;28;20049;-78
2022/07/02 08:38:48;;;;;;;1.58;0.10;;;40.60;28.80;;;;;;6222366;28;20418;-79
2022/07/02 08:41:50;;;;;;;0.40;0.10;;;40.50;28.30;;;;;;6222950;28;20046;-78
2022/07/02 08:44:56;;;;;;;0.95;0.20;;;40.00;28.10;;;;;;6222403;28;20058;-78
2022/07/02 08:47:59;;;;;;;0.35;0.10;;;39.00;29.60;;;;;;6223055;28;20046;-78
2022/07/02 08:51:01;;;;;;;1.33;0.10;;;39.10;28.90;;;;;;6222943;28;20057;-78
2022/07/02 08:54:03;;;;;;;0.63;0.10;;;39.00;28.60;;;;;;6222827;28;20077;-78
2022/07/02 08:57:05;;;;;;;0.77;0.15;;;38.40;28.70;;;;;;6223133;28;20500;-78
2022/07/02 09:00:10;;;;;;;1.13;0.10;;;38.10;28.90;;;;;;6223411;28;20054;-77
2022/07/02 09:03:14;;;;;;;0.47;0.10;;;37.70;29.10;;;;;;6175388;28;20054;-78
2022/07/02 09:06:18;;;;;;;0.52;0.10;;;38.20;29.00;;;;;;6209968;28;20066;-75
2022/07/02 09:09:19;;;;;;;3.55;0.15;;;36.70;29.20;;;;;;6209663;28;20049;-76
2022/07/02 09:12:23;;;;;;;0.60;0.10;;;34.20;30.60;;;;;;6205331;28;20056;-77
2022/07/02 09:15:27;;;;;;;0.10;0.00;;;32.10;32.70;;;;;;6198704;28;20054;-78
2022/07/02 09:18:29;;;;;;;1.08;0.15;;;30.80;34.10;;;;;;6197815;28;20536;-77
2022/07/02 09:21:41;;;;;;;1.13;0.28;;;29.80;35.30;;;;;;6203490;28;20042;-77
2022/07/02 09:24:44;;;;;;;2.35;0.40;;;29.00;36.40;;;;;;6201075;28;20411;-78
2022/07/02 09:27:48;;;;;;;0.85;0.28;;;28.70;36.60;;;;;;6197976;28;20503;-77
2022/07/02 09:30:51;;;;;;;1.85;0.20;;;28.70;37.20;;;;;;6197649;28;20597;-78
2022/07/02 09:33:53;;;;;;;0.13;0.10;;;28.60;38.30;;;;;;6205539;28;20511;-78
2022/07/02 09:36:55;;;;;;;0.77;0.38;;;28.70;37.80;;;;;;6219328;28;20407;-78
2022/07/02 09:40:00;;;;;;;0.88;0.17;;;28.70;37.40;;;;;;6222582;28;20073;-81
2022/07/02 09:43:02;;;;;;;1.27;0.22;;;28.80;37.30;;;;;;6221903;28;20046;-78
2022/07/02 09:46:16;;;;;;;0.30;0.10;;;28.60;37.50;;;;;;6222275;28;20041;-78
2022/07/02 09:49:18;;;;;;;1.08;0.40;;;28.60;38.10;;;;;;6221884;28;20546;-78
2022/07/02 09:52:19;;;;;;;0.28;0.13;;;28.60;38.70;;;;;;6222092;28;20546;-81
2022/07/02 09:55:23;;;;;;;0.40;0.40;;;28.50;40.80;;;;;;6222182;28;20046;-77
2022/07/02 09:58:26;;;;;;;0.57;0.20;;;28.60;42.60;;;;;;6221754;28;20500;-78
2022/07/02 10:01:30;;;;;;;0.68;0.43;;;28.80;42.90;;;;;;6221888;28;20065;-78
2022/07/02 10:04:33;;;;;;;0.77;0.10;;;28.80;43.70;;;;;;6213785;28;20060;-77
2022/07/02 10:07:36;;;;;;;0.65;0.20;;;29.00;43.80;;;;;;6221973;28;20046;-81
2022/07/02 10:10:39;;;;;;;0.32;0.10;;;28.90;43.90;;;;;;6222482;28;20049;-78
2022/07/02 10:13:42;;;;;;;1.85;0.20;;;29.30;41.20;;;;;;6222658;28;20049;-78
2022/07/02 10:16:45;;;;;;;1.58;0.30;;;30.40;38.10;;;;;;6222953;28;20096;-80
2022/07/02 10:19:49;;;;;;;1.65;0.20;;;31.70;36.20;;;;;;6222133;28;20045;-80
2022/07/02 10:22:51;;;;;;;0.40;0.10;;;32.50;35.20;;;;;;6221936;28;20050;-81
2022/07/02 10:25:54;;;;;;;0.13;0.08;;;32.20;35.00;;;;;;6200377;28;20124;-79
2022/07/02 10:28:56;;;;;;;1.05;0.20;;;31.60;35.50;;;;;;6197153;28;20065;-79
2022/07/02 10:32:15;;;;;;;0.85;0.25;;;31.00;36.10;;;;;;6197901;28;20073;-79
2022/07/02 10:35:17;;;;;;;0.55;0.10;;;30.60;37.00;;;;;;6214467;28;20054;-77
2022/07/02 10:38:28;;;;;;;0.13;0.10;;;30.40;36.90;;;;;;6221696;28;20046;-77
2022/07/02 10:41:31;;;;;;;0.38;0.17;;;30.10;37.20;;;;;;6221699;28;20045;-77
2022/07/02 10:44:37;;;;;;;0.15;0.00;;;30.10;36.20;;;;;;6221416;28;20647;-76
2022/07/02 10:47:54;;;;;;;1.23;0.32;;;29.90;36.30;;;;;;6221835;28;20050;-76
2022/07/02 10:50:58;;;;;;;0.70;0.17;;;29.60;36.10;;;;;;6221594;28;20050;-79
2022/07/02 10:54:01;;;;;;;0.35;0.10;;;29.70;35.70;;;;;;6221119;28;20049;-77
2022/07/02 10:57:04;;;;;;;0.30;0.20;;;29.60;35.60;;;;;;6233585;28;20076;-78
2022/07/02 11:00:09;;;;;;;1.27;0.10;;;29.70;35.80;;;;;;6233218;28;20410;-79
2022/07/02 11:03:17;;;;;;;0.35;0.05;;;30.00;36.70;;;;;;6228726;28;20045;-79
2022/07/02 11:06:22;;;;;;;4.97;0.20;;;30.20;35.00;;;;;;6208807;28;20500;-78
2022/07/02 11:09:24;;;;;;;0.05;0.00;;;30.40;34.70;;;;;;6202606;28;20530;-79
2022/07/02 11:12:39;;;;;;;0.50;0.13;;;30.70;35.60;;;;;;6206801;28;20065;-81
2022/07/02 11:15:41;;;;;;;0.30;0.08;;;31.10;34.00;;;;;;6212474;28;20046;-79
2022/07/02 11:18:46;;;;;;;3.38;0.20;;;31.00;34.10;;;;;;6208308;28;20042;-79
2022/07/02 11:21:49;;;;;;;0.55;0.52;;;31.30;34.50;;;;;;6211403;28;20050;-82
2022/07/02 11:24:54;;;;;;;0.75;0.28;;;31.20;34.00;;;;;;6207604;28;20412;-80
2022/07/02 11:27:57;;;;;;;1.98;0.10;;;30.80;33.70;;;;;;6220469;28;20050;-80
2022/07/02 11:30:59;;;;;;;0.47;0.20;;;30.80;34.30;;;;;;6209363;28;20062;-79
2022/07/02 11:34:02;;;;;;;0.73;0.17;;;31.20;34.10;;;;;;6216219;28;20141;-80
2022/07/02 11:37:04;;;;;;;0.68;0.20;;;31.50;34.80;;;;;;6238125;28;20046;-80
2022/07/02 11:40:19;;;;;;;1.63;0.00;;;32.10;33.90;;;;;;6220068;28;20492;-79
2022/07/02 11:43:21;;;;;;;1.65;0.20;;;32.00;33.00;;;;;;6215384;28;20416;-79
2022/07/02 11:46:25;;;;;;;1.55;0.08;;;31.70;34.20;;;;;;6205195;28;20061;-82
2022/07/02 11:49:32;;;;;;;0.63;0.17;;;31.70;34.40;;;;;;6205831;28;20058;-80
2022/07/02 11:52:34;;;;;;;0.27;0.10;;;31.90;34.30;;;;;;6214890;28;20058;-80
2022/07/02 11:55:35;;;;;;;0.43;0.20;;;31.90;34.20;;;;;;6225627;28;20046;-80
2022/07/02 11:58:42;;;;;;;0.35;0.10;;;31.80;34.30;;;;;;6205147;28;20047;-81
2022/07/02 12:01:45;;;;;;;0.30;0.10;;;31.70;34.00;;;;;;6206342;28;20622;-80
2022/07/02 12:04:48;;;;;;;0.15;0.08;;;31.80;34.10;;;;;;6217367;28;20048;-80
2022/07/02 12:07:50;;;;;;;0.70;0.10;;;32.20;35.00;;;;;;6228637;28;20261;-81
2022/07/02 12:10:51;;;;;;;0.93;0.20;;;32.70;33.90;;;;;;6227477;28;20041;-81
2022/07/02 12:13:55;;;;;;;0.85;0.20;;;32.60;32.90;;;;;;6227923;28;20084;-80
2022/07/02 12:16:58;;;;;;;0.40;0.00;;;32.20;33.20;;;;;;6233831;28;20062;-80
2022/07/02 12:20:01;;;;;;;0.32;0.10;;;32.00;33.00;;;;;;6227533;28;20057;-80
2022/07/02 12:23:02;;;;;;;0.15;0.10;;;31.90;34.50;;;;;;6230044;28;20048;-80
2022/07/02 12:26:04;;;;;;;0.45;0.03;;;31.90;33.80;;;;;;6225502;28;20411;-78
2022/07/02 12:32:28;;;;;;;0.28;0.13;;;31.60;35.20;;;;;;6232631;28;20050;-79
2022/07/02 12:35:32;;;;;;;2.15;0.10;;;31.90;34.50;;;;;;6207116;28;20137;-78
2022/07/02 12:38:42;;;;;;;3.83;0.10;;;32.10;35.30;;;;;;6240433;28;20056;-79
2022/07/02 12:41:44;;;;;;;1.65;0.15;;;32.40;34.40;;;;;;6239493;28;20064;-77
2022/07/02 12:44:51;;;;;;;0.25;0.10;;;32.40;33.80;;;;;;6233737;28;20337;-81
2022/07/02 12:47:59;;;;;;;0.38;0.10;;;32.00;34.40;;;;;;6233673;28;20037;-79
2022/07/02 12:51:09;;;;;;;;;;;32.20;34.30;;;;;;6240948;28;20046;-79
2022/07/02 12:54:11;;;;;;;0.10;0.10;;;32.20;34.00;;;;;;6243051;28;19988;-79
2022/07/02 12:57:17;;;;;;;0.60;0.20;;;32.10;34.00;;;;;;6235265;28;20487;-79
2022/07/02 13:00:19;;;;;;;2.00;0.30;;;32.50;33.90;;;;;;6231450;28;20053;-77
2022/07/02 13:03:23;;;;;;;0.43;0.13;;;32.50;33.30;;;;;;6229348;28;20045;-80
2022/07/02 13:06:26;;;;;;;3.03;0.32;;;32.40;33.20;;;;;;6221591;28;20080;-79
2022/07/02 13:09:28;;;;;;;2.95;0.20;;;32.60;33.40;;;;;;6228638;28;20041;-80
2022/07/02 13:12:30;;;;;;;1.98;0.22;;;32.80;33.60;;;;;;6232245;28;20050;-80
2022/07/02 13:15:32;;;;;;;0.20;0.10;;;32.90;33.20;;;;;;6233179;28;20132;-79
2022/07/02 13:18:33;;;;;;;1.55;0.32;;;32.80;32.90;;;;;;6232324;28;20038;-80
2022/07/02 13:21:36;;;;;;;0.22;0.00;;;32.60;33.60;;;;;;6232234;28;20631;-80
2022/07/02 13:24:38;;;;;;;0.57;0.13;;;32.50;33.50;;;;;;6230085;28;20048;-79
2022/07/02 13:27:41;;;;;;;2.00;0.20;;;32.50;32.60;;;;;;6220496;28;20050;-80
2022/07/02 13:30:43;;;;;;;0.98;0.10;;;32.50;33.10;;;;;;6226728;28;20061;-80
2022/07/02 13:33:45;;;;;;;0.10;0.10;;;32.50;33.60;;;;;;6222275;28;20066;-79
2022/07/02 13:36:48;;;;;;;0.22;0.10;;;32.50;33.60;;;;;;6226382;28;20392;-81
2022/07/02 13:39:49;;;;;;;0.35;0.10;;;32.60;33.10;;;;;;6229869;28;20602;-79
2022/07/02 13:42:51;;;;;;;0.88;0.17;;;32.40;32.50;;;;;;6229074;28;20045;-82
2022/07/02 13:45:53;;;;;;;0.25;0.10;;;32.30;33.40;;;;;;6227981;28;20048;-81
2022/07/02 13:48:55;;;;;;;1.35;0.30;;;32.50;33.10;;;;;;6227018;28;20045;-81
2022/07/02 13:51:58;;;;;;;0.00;0.00;;;32.60;33.00;;;;;;6228545;28;20064;-81
2022/07/02 13:54:59;;;;;;;3.75;0.30;;;32.90;33.10;;;;;;6227362;28;20400;-82
2022/07/02 13:58:01;;;;;;;0.35;0.00;;;32.80;32.50;;;;;;6216481;28;20042;-81
2022/07/02 14:01:03;;;;;;;1.23;0.10;;;32.60;33.00;;;;;;6207271;28;20420;-81
2022/07/02 14:04:05;;;;;;;0.10;0.10;;;32.60;33.60;;;;;;6215270;28;20064;-82
2022/07/02 14:07:08;;;;;;;0.45;0.10;;;32.60;32.90;;;;;;6229912;28;20049;-81
2022/07/02 14:10:10;;;;;;;0.28;0.10;;;32.50;33.10;;;;;;6231909;28;20064;-82
2022/07/02 14:13:12;;;;;;;0.82;0.20;;;32.70;32.70;;;;;;6232622;28;20061;-81
2022/07/02 14:16:14;;;;;;;0.60;0.10;;;32.60;32.90;;;;;;6227182;28;20046;-81
2022/07/02 14:19:16;;;;;;;0.20;0.20;;;32.60;33.10;;;;;;6226838;28;20056;-79
2022/07/02 14:22:19;;;;;;;3.40;0.17;;;32.60;33.60;;;;;;6226726;28;20060;-81
2022/07/02 14:25:22;;;;;;;0.20;0.10;;;32.40;33.50;;;;;;6210277;28;20052;-81
2022/07/02 14:28:24;;;;;;;0.50;0.20;;;32.60;33.40;;;;;;6203685;28;20042;-79
2022/07/02 14:31:26;;;;;;;1.90;0.10;;;32.60;32.90;;;;;;6204101;28;20054;-77
2022/07/02 14:34:28;;;;;;;0.65;0.20;;;32.40;33.20;;;;;;6205849;28;20527;-78
2022/07/02 14:37:31;;;;;;;0.70;0.20;;;32.50;33.70;;;;;;6220593;28;20072;-80
2022/07/02 14:40:33;;;;;;;2.58;0.43;;;32.30;33.90;;;;;;6220013;28;20602;-76
2022/07/02 14:43:35;;;;;;;0.90;0.10;;;32.20;33.40;;;;;;6221155;28;20046;-79
2022/07/02 14:46:37;;;;;;;1.30;0.20;;;32.20;33.40;;;;;;6224273;28;20050;-77
2022/07/02 14:49:39;;;;;;;0.30;0.10;;;32.10;33.60;;;;;;6224597;28;20419;-78
2022/07/02 14:52:42;;;;;;;0.40;0.10;;;32.20;33.40;;;;;;6225463;28;20042;-81
2022/07/02 14:55:44;;;;;;;0.90;0.10;;;32.20;34.10;;;;;;6225785;28;20138;-78
2022/07/02 14:58:45;;;;;;;0.63;0.10;;;32.20;33.20;;;;;;6224627;28;20046;-79
2022/07/02 15:01:47;;;;;;;0.17;0.10;;;32.30;32.90;;;;;;6225362;28;20064;-78
2022/07/02 15:04:49;;;;;;;2.17;0.20;;;32.30;33.40;;;;;;6216757;28;20049;-78
2022/07/02 15:07:52;;;;;;;0.30;0.00;;;32.30;33.20;;;;;;6225657;28;20054;-82
2022/07/02 15:10:54;;;;;;;0.35;0.10;;;32.30;33.50;;;;;;6225008;28;20049;-78
2022/07/02 15:17:16;;;;;;;0.10;0.10;;;32.30;32.70;;;;;;6224719;28;20050;-78
2022/07/02 15:20:18;;;;;;;0.17;0.08;;;32.20;33.30;;;;;;6225476;28;20142;-77
2022/07/02 15:23:25;;;;;;;0.28;0.10;;;32.30;33.30;;;;;;6226128;28;20056;-80
2022/07/02 15:26:30;;;;;;;0.30;0.10;;;32.40;33.50;;;;;;6225058;28;20135;-78
2022/07/02 15:29:32;;;;;;;0.40;0.20;;;32.40;32.50;;;;;;6214189;28;20452;-79
2022/07/02 15:32:34;;;;;;;2.08;0.20;;;32.30;33.00;;;;;;6202628;28;20050;-78
2022/07/02 15:35:40;;;;;;;0.50;0.22;;;32.50;33.40;;;;;;6217011;28;20053;-78
2022/07/02 15:38:45;;;;;;;0.88;0.17;;;32.50;33.00;;;;;;6224221;28;20575;-78
2022/07/02 15:41:48;;;;;;;0.20;0.20;;;32.30;33.40;;;;;;6224912;28;20050;-78
2022/07/02 15:44:52;;;;;;;3.50;0.30;;;32.30;33.10;;;;;;6224613;28;20650;-79
2022/07/02 15:47:54;;;;;;;0.52;0.20;;;32.30;32.80;;;;;;6224670;28;20050;-80
2022/07/02 15:51:00;;;;;;;0.52;0.17;;;32.30;33.10;;;;;;6224326;28;20065;-80
2022/07/02 15:54:09;;;;;;;0.90;0.17;;;32.30;33.50;;;;;;6206453;28;20428;-78
2022/07/02 15:57:12;;;;;;;0.65;0.20;;;32.30;33.90;;;;;;6199547;28;20050;-80
2022/07/02 16:00:15;;;;;;;0.15;0.10;;;32.40;33.70;;;;;;6200265;28;20072;-79
2022/07/02 16:03:18;;;;;;;3.85;0.22;;;32.40;33.40;;;;;;6198810;28;20492;-81
2022/07/02 16:06:21;;;;;;;1.38;0.10;;;32.30;34.00;;;;;;6209523;28;20045;-78